Terminal Aerodrome Forecast
Issued by NWS Jackson, MS

Home | Current Version | Previous Version | Text Only | Print | Product List | Glossary On
Versions: 1 2 3 4 5 6 7 8 9 10 11 12 13
000
FTUS44 KJAN 290900 AAA
TAFGLH
TAF AMD
KGLH 290950Z 2910/3006 00000KT 3SM BR SKC
      TEMPO 2910/2912 1SM BR
     FM291300 01008KT P6SM SKC
     FM300200 02003KT P6SM SKC=

USA.gov is the U.S. government's official web portal to all federal, state and local government web resources and services.